createdAt,value
2018-03-15T00:02:14.173Z,27.03
2018-03-15T00:04:41.775Z,25.67
2018-03-15T00:07:09.316Z,26.17
2018-03-15T00:09:36.918Z,26.62
2018-03-15T00:12:05.224Z,25.58
2018-03-15T00:14:35.833Z,25.73
2018-03-15T00:17:03.435Z,24.50
2018-03-15T00:19:31.029Z,26.37
2018-03-15T00:21:58.594Z,27.50
2018-03-15T00:24:26.189Z,27.80
2018-03-15T00:26:53.746Z,24.97
2018-03-15T00:29:21.333Z,25.83
2018-03-15T00:31:48.887Z,27.55
2018-03-15T00:34:16.479Z,25.98
2018-03-15T00:36:44.021Z,27.77
2018-03-15T00:39:11.613Z,28.30
2018-03-15T00:41:39.935Z,26.37
2018-03-15T00:44:07.524Z,25.88
2018-03-15T00:46:35.060Z,27.97
2018-03-15T00:49:02.657Z,24.00
2018-03-15T00:51:30.197Z,28.83
2018-03-15T00:53:57.791Z,25.88
2018-03-15T00:56:26.105Z,26.67
2018-03-15T00:58:54.156Z,28.30
2018-03-15T01:01:22.473Z,25.27
2018-03-15T01:03:50.075Z,22.37
2018-03-15T01:06:17.626Z,24.08
2018-03-15T01:08:45.222Z,25.85
2018-03-15T01:11:12.771Z,26.20
2018-03-15T01:13:41.128Z,26.75
2018-03-15T01:16:08.680Z,25.75
2018-03-15T01:18:36.288Z,24.67
2018-03-15T01:21:03.872Z,25.05
2018-03-15T01:23:31.413Z,27.47
2018-03-15T01:25:59.005Z,26.08
2018-03-15T01:28:26.551Z,27.43
2018-03-15T01:30:54.313Z,25.73
2018-03-15T01:33:21.875Z,23.57
2018-03-15T01:35:49.469Z,25.83
2018-03-15T01:38:17.016Z,29.87
2018-03-15T01:40:44.628Z,30.45
2018-03-15T01:43:12.178Z,26.85
2018-03-15T01:45:39.775Z,21.87
2018-03-15T01:48:07.335Z,26.33
2018-03-15T01:50:34.924Z,23.98
2018-03-15T01:53:02.466Z,26.73
2018-03-15T01:55:30.048Z,23.48
2018-03-15T01:57:57.597Z,25.15
2018-03-15T02:00:25.187Z,29.08
2018-03-15T02:02:53.526Z,25.70
2018-03-15T02:05:21.147Z,24.05
2018-03-15T02:07:48.693Z,28.52
2018-03-15T02:10:17.120Z,24.10
2018-03-15T02:12:44.660Z,23.70
2018-03-15T02:15:12.252Z,24.00
2018-03-15T02:17:39.800Z,25.65
2018-03-15T02:20:07.394Z,24.65
2018-03-15T02:22:34.998Z,32.80
2018-03-15T02:25:02.592Z,23.58
2018-03-15T02:27:30.136Z,26.27
2018-03-15T02:29:57.725Z,28.77
2018-03-15T02:32:25.277Z,22.67
2018-03-15T02:34:52.870Z,22.67
2018-03-15T02:37:21.181Z,24.63
2018-03-15T02:39:48.776Z,27.02
2018-03-15T02:42:16.330Z,26.25
2018-03-15T02:44:43.912Z,27.20
2018-03-15T02:47:12.224Z,22.58
2018-03-15T02:49:39.812Z,22.77
2018-03-15T02:52:07.361Z,25.80
2018-03-15T02:54:34.957Z,25.98
2018-03-15T02:57:02.500Z,27.27
2018-03-15T02:59:30.045Z,24.75
2018-03-15T03:01:57.633Z,25.90
2018-03-15T03:04:25.179Z,27.13
2018-03-15T03:06:52.765Z,25.73
2018-03-15T03:09:20.314Z,23.48
2018-03-15T03:11:47.913Z,23.27
2018-03-15T03:14:16.215Z,24.77
2018-03-15T03:16:43.809Z,23.95
2018-03-15T03:19:11.356Z,24.55
2018-03-15T03:21:38.950Z,22.48
2018-03-15T03:24:07.260Z,26.17
2018-03-15T03:26:34.850Z,34.00
2018-03-15T03:29:02.404Z,99.82
2018-03-15T03:31:29.989Z,61.97
2018-03-15T03:33:57.538Z,34.40
2018-03-15T03:36:25.119Z,30.62
2018-03-15T03:38:54.184Z,41.83
2018-03-15T03:41:21.772Z,24.80
2018-03-15T03:43:49.352Z,24.23
2018-03-15T03:46:17.657Z,23.73
2018-03-15T03:48:45.239Z,26.52
2018-03-15T03:51:12.781Z,27.60
2018-03-15T03:53:40.361Z,28.12
2018-03-15T03:56:07.912Z,28.48
2018-03-15T03:58:35.504Z,26.20
2018-03-15T04:01:03.056Z,26.50
2018-03-15T04:03:30.643Z,26.05
2018-03-15T04:05:58.189Z,27.37
2018-03-15T04:08:25.771Z,28.25
2018-03-15T04:10:54.081Z,25.62
2018-03-15T04:13:21.665Z,23.65
2018-03-15T04:15:49.401Z,23.58
2018-03-15T04:18:17.723Z,25.85
2018-03-15T04:20:45.268Z,24.20
2018-03-15T04:23:12.858Z,27.40
2018-03-15T04:25:40.413Z,24.80
2018-03-15T04:28:08.020Z,27.05
2018-03-15T04:30:35.565Z,27.17
2018-03-15T04:33:03.909Z,27.52
2018-03-15T04:35:31.468Z,84.40
2018-03-15T04:37:59.051Z,27.10
2018-03-15T04:40:27.358Z,42.30
2018-03-15T04:42:54.939Z,106.25
2018-03-15T04:45:22.486Z,196.07
2018-03-15T04:47:50.083Z,158.15
2018-03-15T04:50:17.624Z,199.73
2018-03-15T04:52:45.209Z,148.20
2018-03-15T04:55:12.757Z,99.32
2018-03-15T04:57:40.348Z,104.43
2018-03-15T05:00:07.917Z,120.18
2018-03-15T05:02:36.268Z,79.22
2018-03-15T05:05:03.814Z,71.68
2018-03-15T05:07:31.404Z,130.20
2018-03-15T05:09:59.721Z,32.08
2018-03-15T05:12:27.305Z,41.03
2018-03-15T05:14:54.850Z,22.50
2018-03-15T05:17:22.435Z,33.33
2018-03-15T05:19:49.985Z,26.73
2018-03-15T05:22:17.581Z,25.62
2018-03-15T05:24:45.903Z,30.58
2018-03-15T05:27:13.458Z,26.77
2018-03-15T05:29:41.040Z,27.87
2018-03-15T05:32:08.630Z,26.27
2018-03-15T05:34:36.168Z,25.05
2018-03-15T05:37:03.738Z,29.48
2018-03-15T05:39:32.797Z,28.17
2018-03-15T05:42:00.407Z,30.12
2018-03-15T05:44:27.950Z,30.40
2018-03-15T05:46:55.492Z,27.83
2018-03-15T05:49:23.072Z,30.20
2018-03-15T05:51:50.629Z,29.45
2018-03-15T05:54:18.208Z,30.02
2018-03-15T05:56:46.516Z,29.63
2018-03-15T05:59:14.096Z,34.20
2018-03-15T06:01:41.636Z,31.20
2018-03-15T06:04:09.214Z,28.52
2018-03-15T06:06:36.765Z,24.73
2018-03-15T06:09:04.349Z,25.48
2018-03-15T06:11:31.888Z,22.85
2018-03-15T06:13:59.509Z,25.05
2018-03-15T06:16:27.032Z,25.62
2018-03-15T06:18:54.608Z,26.67
2018-03-15T06:21:22.154Z,25.25
2018-03-15T06:23:49.742Z,27.85
2018-03-15T06:26:18.066Z,42.25
2018-03-15T06:28:45.734Z,31.15
2018-03-15T06:31:13.262Z,39.55
2018-03-15T06:33:41.609Z,38.80
2018-03-15T06:36:09.144Z,53.70
2018-03-15T06:38:36.724Z,33.83
2018-03-15T06:41:04.325Z,50.15
2018-03-15T06:43:31.935Z,34.95
2018-03-15T06:45:59.472Z,37.67
2018-03-15T06:48:27.056Z,29.45
2018-03-15T06:50:54.613Z,38.95
2018-03-15T06:53:22.194Z,38.03
2018-03-15T06:55:51.243Z,35.03
2018-03-15T06:58:18.825Z,39.08
2018-03-15T07:00:46.360Z,35.67
2018-03-15T07:03:13.940Z,38.33
2018-03-15T07:05:41.588Z,32.97
2018-03-15T07:08:09.144Z,34.53
2018-03-15T07:10:36.735Z,38.78
2018-03-15T07:13:04.280Z,32.40
2018-03-15T07:15:31.850Z,30.80
2018-03-15T07:17:59.389Z,39.80
2018-03-15T07:20:26.993Z,31.90
2018-03-15T07:22:55.425Z,32.97
2018-03-15T07:25:23.016Z,33.47
2018-03-15T07:27:50.578Z,43.05
2018-03-15T07:30:18.348Z,38.25
2018-03-15T07:32:45.922Z,25.88
2018-03-15T07:35:14.438Z,32.92
2018-03-15T07:37:41.982Z,34.38
2018-03-15T07:40:10.334Z,39.97
2018-03-15T07:42:37.915Z,30.80
2018-03-15T07:45:05.522Z,39.20
2018-03-15T07:47:33.070Z,46.65
2018-03-15T07:50:00.648Z,45.47
2018-03-15T07:52:28.197Z,41.15
2018-03-15T07:54:55.783Z,41.35
2018-03-15T07:57:23.316Z,32.10
2018-03-15T07:59:50.899Z,35.85
2018-03-15T08:02:18.436Z,39.80
2018-03-15T08:04:46.020Z,39.50
2018-03-15T08:07:13.597Z,42.25
2018-03-15T08:09:41.140Z,41.05
2018-03-15T08:12:08.683Z,22.92
2018-03-15T08:14:36.299Z,38.83
2018-03-15T08:17:04.606Z,36.08
2018-03-15T08:19:32.188Z,37.05
2018-03-15T08:21:59.787Z,46.95
2018-03-15T08:24:28.085Z,30.30
2018-03-15T08:26:55.628Z,31.42
2018-03-15T08:29:23.971Z,34.28
2018-03-15T08:31:51.570Z,34.05
2018-03-15T08:34:19.874Z,40.70
2018-03-15T08:36:47.417Z,38.33
2018-03-15T08:39:15.002Z,42.20
2018-03-15T08:41:42.615Z,64.12
2018-03-15T08:44:10.921Z,34.95
2018-03-15T08:46:38.607Z,53.55
2018-03-15T08:49:06.191Z,36.67
2018-03-15T08:51:33.821Z,39.85
2018-03-15T08:54:01.408Z,42.42
2018-03-15T08:56:28.951Z,44.67
2018-03-15T08:58:56.535Z,36.78
2018-03-15T09:01:24.081Z,37.83
2018-03-15T09:03:51.669Z,43.20
2018-03-15T09:06:19.203Z,40.47
2018-03-15T09:08:46.790Z,18.25
2018-03-15T09:11:15.115Z,23.00
2018-03-15T09:13:42.694Z,19.80
2018-03-15T09:16:10.239Z,21.25
2018-03-15T09:18:37.828Z,32.85
2018-03-15T09:21:05.381Z,17.27
2018-03-15T09:23:32.967Z,26.23
2018-03-15T09:26:01.269Z,16.80
2018-03-15T09:28:28.863Z,15.52
2018-03-15T09:30:56.402Z,13.62
2018-03-15T09:33:24.013Z,14.85
2018-03-15T09:35:52.350Z,12.70
2018-03-15T09:38:19.948Z,12.63
2018-03-15T09:40:48.280Z,12.20
2018-03-15T09:43:15.877Z,12.00
2018-03-15T09:45:44.213Z,41.90
2018-03-15T09:48:11.812Z,13.95
2018-03-15T09:50:40.140Z,11.50
2018-03-15T09:53:07.750Z,11.20
2018-03-15T09:55:35.317Z,12.82
2018-03-15T09:58:02.937Z,10.38
2018-03-15T10:00:30.514Z,11.52
2018-03-15T10:02:58.128Z,14.07
2018-03-15T10:05:25.687Z,9.88
2018-03-15T10:07:53.288Z,14.18
2018-03-15T10:10:20.853Z,10.18
2018-03-15T10:12:48.465Z,12.35
2018-03-15T10:15:16.858Z,10.68
2018-03-15T10:17:44.469Z,13.25
2018-03-15T10:20:12.804Z,14.00
2018-03-15T10:22:40.406Z,12.60
2018-03-15T10:25:13.769Z,20.23
2018-03-15T10:27:36.341Z,16.98
2018-03-15T10:30:03.968Z,9.90
2018-03-15T10:32:31.655Z,12.40
2018-03-15T10:35:04.921Z,14.23
2018-03-15T10:37:39.201Z,12.90
2018-03-15T10:40:07.526Z,12.77
2018-03-15T10:42:35.127Z,10.87
2018-03-15T10:45:03.451Z,16.03
2018-03-15T10:47:31.055Z,13.80
2018-03-15T10:49:58.632Z,11.97
2018-03-15T10:52:27.002Z,12.97
2018-03-15T10:54:54.560Z,12.60
2018-03-15T10:57:22.157Z,11.17
2018-03-15T10:59:49.766Z,11.77
2018-03-15T11:02:19.308Z,8.80
2018-03-15T11:04:53.284Z,17.60
2018-03-15T11:07:26.562Z,9.87
2018-03-15T11:09:54.120Z,23.33
2018-03-15T11:12:21.707Z,11.70
2018-03-15T11:14:49.267Z,11.77
2018-03-15T11:17:16.867Z,8.20
2018-03-15T11:19:44.425Z,7.83
2018-03-15T11:22:11.994Z,8.77
2018-03-15T11:24:39.604Z,11.23
2018-03-15T11:27:07.208Z,9.00
2018-03-15T11:29:35.518Z,6.57
2018-03-15T11:32:03.112Z,6.80
2018-03-15T11:34:30.668Z,8.53
2018-03-15T11:36:58.259Z,9.83
2018-03-15T11:39:26.588Z,10.90
2018-03-15T11:41:54.217Z,8.43
2018-03-15T11:44:21.800Z,12.20
2018-03-15T11:46:49.424Z,10.27
2018-03-15T11:49:17.000Z,7.80
2018-03-15T11:51:44.604Z,9.63
2018-03-15T11:54:12.169Z,8.00
2018-03-15T11:56:39.779Z,15.63
2018-03-15T11:59:07.344Z,8.10
2018-03-15T12:01:34.962Z,10.17
2018-03-15T12:04:02.513Z,7.80
2018-03-15T12:06:30.159Z,9.70
2018-03-15T12:08:57.757Z,7.93
2018-03-15T12:11:26.080Z,7.87
2018-03-15T12:13:53.684Z,9.67
2018-03-15T12:16:21.284Z,11.70
2018-03-15T12:18:48.854Z,9.73
2018-03-15T12:21:16.436Z,9.10
2018-03-15T12:23:43.984Z,10.07
2018-03-15T12:26:11.567Z,8.40
2018-03-15T12:28:39.108Z,16.70
2018-03-15T12:31:06.915Z,8.80
2018-03-15T12:33:34.269Z,9.57
2018-03-15T12:36:01.859Z,9.07
2018-03-15T12:38:30.171Z,10.53
2018-03-15T12:40:57.754Z,11.60
2018-03-15T12:43:25.296Z,9.43
2018-03-15T12:45:52.879Z,10.10
2018-03-15T12:48:20.426Z,8.80
2018-03-15T12:50:48.013Z,10.13
2018-03-15T12:53:15.557Z,28.03
2018-03-15T12:55:43.152Z,15.33
2018-03-15T12:58:11.462Z,9.40
2018-03-15T13:00:39.049Z,11.33
2018-03-15T13:03:06.597Z,18.20
2018-03-15T13:05:34.132Z,10.20
2018-03-15T13:08:01.716Z,9.13
2018-03-15T13:10:29.268Z,12.40
2018-03-15T13:12:56.856Z,10.00
2018-03-15T13:15:24.401Z,38.42
2018-03-15T13:17:51.980Z,8.80
2018-03-15T13:20:19.525Z,10.27
2018-03-15T13:22:47.114Z,11.40
2018-03-15T13:25:15.416Z,6.87
2018-03-15T13:27:43.760Z,10.63
2018-03-15T13:30:11.294Z,9.50
2018-03-15T13:32:38.874Z,17.20
2018-03-15T13:35:06.428Z,10.17
2018-03-15T13:37:34.016Z,11.73
2018-03-15T13:40:01.556Z,13.17
2018-03-15T13:42:29.135Z,11.60
2018-03-15T13:44:56.682Z,11.30
2018-03-15T13:47:25.028Z,12.60
2018-03-15T13:49:52.564Z,8.77
2018-03-15T13:52:20.154Z,12.60
2018-03-15T13:54:47.688Z,10.80
2018-03-15T13:57:15.278Z,10.83
2018-03-15T13:59:42.809Z,8.43
2018-03-15T14:02:10.389Z,9.63
2018-03-15T14:04:39.586Z,8.40
2018-03-15T14:07:07.167Z,10.07
2018-03-15T14:09:34.783Z,9.97
2018-03-15T14:12:02.328Z,15.93
2018-03-15T14:14:30.774Z,8.50
2018-03-15T14:16:58.323Z,11.43
2018-03-15T14:19:25.896Z,8.47
2018-03-15T14:21:53.448Z,14.00
2018-03-15T14:24:21.821Z,12.40
2018-03-15T14:26:49.360Z,11.00
2018-03-15T14:29:16.956Z,13.07
2018-03-15T14:31:45.519Z,11.50
2018-03-15T14:34:13.073Z,10.80
2018-03-15T14:36:40.623Z,8.63
2018-03-15T14:39:08.205Z,8.63
2018-03-15T14:41:35.736Z,9.43
2018-03-15T14:44:03.314Z,11.30
2018-03-15T14:46:30.889Z,13.90
2018-03-15T14:48:58.478Z,8.43
2018-03-15T14:51:26.805Z,13.57
2018-03-15T14:53:54.384Z,8.87
2018-03-15T14:56:21.923Z,9.77
2018-03-15T14:58:49.505Z,11.90
2018-03-15T15:01:17.036Z,11.07
2018-03-15T15:03:44.616Z,11.20
2018-03-15T15:06:12.157Z,10.27
2018-03-15T15:08:39.755Z,10.90
2018-03-15T15:11:07.300Z,10.17
2018-03-15T15:13:34.876Z,10.87
2018-03-15T15:16:02.422Z,14.40
2018-03-15T15:18:30.002Z,31.53
2018-03-15T15:20:57.558Z,14.23
2018-03-15T15:23:25.148Z,14.37
2018-03-15T15:25:53.453Z,14.40
2018-03-15T15:28:21.036Z,11.37
2018-03-15T15:30:48.591Z,10.30
2018-03-15T15:33:16.245Z,11.43
2018-03-15T15:35:43.790Z,15.03
2018-03-15T15:38:11.466Z,10.90
2018-03-15T15:40:39.010Z,8.83
2018-03-15T15:43:06.593Z,12.53
2018-03-15T15:45:34.237Z,10.53
2018-03-15T15:48:01.819Z,15.70
2018-03-15T15:50:29.351Z,14.37
2018-03-15T15:52:56.938Z,12.20
2018-03-15T15:55:24.489Z,17.67
2018-03-15T15:57:52.072Z,11.10
2018-03-15T16:00:19.615Z,12.17
2018-03-15T16:02:47.200Z,12.33
2018-03-15T16:05:14.737Z,17.70
2018-03-15T16:07:42.315Z,16.30
2018-03-15T16:10:09.852Z,20.13
2018-03-15T16:12:37.480Z,11.77
2018-03-15T16:15:05.769Z,15.40
2018-03-15T16:17:33.367Z,12.13
2018-03-15T16:20:00.906Z,11.73
2018-03-15T16:22:28.486Z,13.37
2018-03-15T16:24:56.016Z,10.63
2018-03-15T16:27:23.593Z,10.80
2018-03-15T16:29:51.132Z,14.97
2018-03-15T16:32:18.713Z,12.63
2018-03-15T16:34:46.252Z,15.47
2018-03-15T16:37:13.824Z,12.63
2018-03-15T16:39:41.360Z,13.60
2018-03-15T16:42:08.946Z,16.93
2018-03-15T16:44:36.518Z,10.97
2018-03-15T16:47:04.092Z,16.07
2018-03-15T16:49:31.656Z,13.63
2018-03-15T16:51:59.258Z,13.60
2018-03-15T16:54:26.848Z,11.80
2018-03-15T16:56:54.443Z,12.80
2018-03-15T16:59:21.984Z,13.73
2018-03-15T17:01:49.572Z,16.60
2018-03-15T17:04:17.106Z,15.00
2018-03-15T17:06:44.681Z,15.47
2018-03-15T17:09:12.224Z,13.70
2018-03-15T17:11:39.817Z,14.93
2018-03-15T17:14:08.128Z,11.73
2018-03-15T17:16:35.720Z,15.13
2018-03-15T17:19:03.262Z,16.33
2018-03-15T17:21:30.839Z,18.43
2018-03-15T17:23:58.383Z,13.80
2018-03-15T17:26:25.971Z,13.03
2018-03-15T17:28:53.561Z,20.00
2018-03-15T17:31:21.870Z,14.57
2018-03-15T17:33:49.460Z,14.70
2018-03-15T17:36:17.008Z,17.80
2018-03-15T17:38:44.596Z,13.17
2018-03-15T17:41:12.146Z,14.73
2018-03-15T17:43:39.753Z,14.30
2018-03-15T17:46:08.057Z,13.97
2018-03-15T17:48:35.639Z,14.10
2018-03-15T17:51:03.177Z,13.10
2018-03-15T17:53:30.948Z,16.53
2018-03-15T17:55:58.485Z,12.00
2018-03-15T17:58:26.063Z,14.03
2018-03-15T18:00:53.602Z,13.03
2018-03-15T18:03:21.205Z,14.40
2018-03-15T18:05:48.748Z,14.20
2018-03-15T18:08:16.336Z,14.70
2018-03-15T18:10:43.875Z,13.43
2018-03-15T18:13:11.462Z,16.50
2018-03-15T18:15:39.003Z,14.50
2018-03-15T18:18:06.582Z,13.60
2018-03-15T18:20:35.628Z,12.80
2018-03-15T18:23:03.213Z,15.77
2018-03-15T18:25:30.749Z,16.43
2018-03-15T18:27:58.333Z,13.10
2018-03-15T18:30:25.876Z,13.17
2018-03-15T18:32:53.454Z,12.97
2018-03-15T18:35:21.000Z,11.83
2018-03-15T18:37:48.583Z,14.23
2018-03-15T18:40:16.164Z,11.33
2018-03-15T18:42:43.748Z,13.87
2018-03-15T18:45:12.073Z,15.50
2018-03-15T18:47:39.664Z,19.10
2018-03-15T18:50:07.205Z,14.43
2018-03-15T18:52:34.788Z,14.13
2018-03-15T18:55:02.346Z,14.47
2018-03-15T18:57:30.695Z,14.30
2018-03-15T18:59:58.238Z,13.90
2018-03-15T19:02:25.822Z,14.17
2018-03-15T19:04:53.374Z,16.87
2018-03-15T19:07:20.952Z,14.63
2018-03-15T19:09:48.502Z,13.20
2018-03-15T19:12:16.089Z,14.13
2018-03-15T19:14:44.627Z,14.03
2018-03-15T19:17:12.217Z,11.73
2018-03-15T19:19:39.764Z,15.10
2018-03-15T19:22:07.366Z,22.07
2018-03-15T19:24:35.682Z,16.90
2018-03-15T19:27:03.237Z,26.60
2018-03-15T19:29:30.819Z,17.20
2018-03-15T19:31:58.372Z,14.50
2018-03-15T19:34:25.955Z,12.60
2018-03-15T19:36:53.510Z,13.93
2018-03-15T19:39:21.144Z,16.77
2018-03-15T19:41:48.687Z,21.90
2018-03-15T19:44:16.280Z,14.13
2018-03-15T19:46:44.585Z,16.73
2018-03-15T19:49:12.179Z,15.57
2018-03-15T19:51:39.730Z,13.83
2018-03-15T19:54:07.330Z,15.17
2018-03-15T19:56:34.896Z,15.67
2018-03-15T19:59:02.495Z,20.10
2018-03-15T20:01:30.822Z,19.00
2018-03-15T20:03:58.409Z,15.40
2018-03-15T20:06:25.958Z,16.10
2018-03-15T20:08:53.609Z,16.80
2018-03-15T20:11:21.163Z,17.63
2018-03-15T20:13:48.827Z,17.07
2018-03-15T20:16:16.385Z,17.30
2018-03-15T20:18:43.968Z,20.00
2018-03-15T20:21:11.511Z,16.67
2018-03-15T20:23:56.955Z,19.10
2018-03-15T20:26:24.500Z,17.93
2018-03-15T20:28:52.871Z,17.23
2018-03-15T20:31:20.416Z,15.27
2018-03-15T20:34:04.844Z,14.70
2018-03-15T20:36:32.401Z,15.90
2018-03-15T20:39:00.004Z,16.13
2018-03-15T20:41:31.006Z,18.87
2018-03-15T20:44:01.802Z,22.33
2018-03-15T20:46:35.956Z,18.50
2018-03-15T20:49:14.407Z,17.73
2018-03-15T20:51:41.954Z,16.60
2018-03-15T20:54:09.544Z,19.13
2018-03-15T20:56:37.863Z,17.27
2018-03-15T20:59:05.446Z,19.00
2018-03-15T21:01:32.989Z,18.17
2018-03-15T21:04:00.588Z,17.70
2018-03-15T21:06:28.137Z,17.13
2018-03-15T21:08:55.721Z,15.73
2018-03-15T21:11:24.027Z,22.87
2018-03-15T21:13:51.608Z,19.43
2018-03-15T21:16:19.170Z,19.77
2018-03-15T21:18:46.757Z,15.27
2018-03-15T21:21:14.316Z,20.23
2018-03-15T21:23:42.688Z,21.60
2018-03-15T21:26:10.240Z,16.37
2018-03-15T21:28:37.823Z,15.87
2018-03-15T21:31:06.158Z,18.57
2018-03-15T21:33:33.805Z,16.50
2018-03-15T21:36:02.092Z,19.03
2018-03-15T21:38:29.684Z,18.77
2018-03-15T21:40:57.241Z,20.73
2018-03-15T21:43:24.833Z,19.93
2018-03-15T21:45:53.152Z,18.40
2018-03-15T21:48:20.747Z,19.30
2018-03-15T21:50:48.305Z,23.33
2018-03-15T21:53:15.906Z,26.00
2018-03-15T21:55:44.219Z,18.67
2018-03-15T21:58:11.809Z,21.10
2018-03-15T22:00:39.351Z,18.47
2018-03-15T22:03:07.456Z,20.00
2018-03-15T22:05:39.082Z,21.40
2018-03-15T22:08:06.730Z,19.17
2018-03-15T22:10:34.326Z,18.73
2018-03-15T22:13:01.967Z,19.87
2018-03-15T22:15:29.568Z,25.23
2018-03-15T22:17:57.967Z,33.03
2018-03-15T22:20:25.579Z,21.10
2018-03-15T22:22:53.214Z,18.33
2018-03-15T22:25:20.805Z,18.13
2018-03-15T22:27:48.446Z,38.93
2018-03-15T22:30:16.039Z,19.20
2018-03-15T22:32:44.447Z,18.70
2018-03-15T22:35:12.043Z,20.00
2018-03-15T22:37:39.691Z,21.70
2018-03-15T22:40:07.288Z,18.57
2018-03-15T22:42:34.918Z,17.63
2018-03-15T22:45:02.507Z,21.10
2018-03-15T22:47:30.145Z,18.67
2018-03-15T22:49:57.739Z,18.20
2018-03-15T22:52:25.365Z,20.13
2018-03-15T22:54:52.949Z,19.60
2018-03-15T22:57:20.581Z,16.93
2018-03-15T22:59:48.253Z,16.07
2018-03-15T23:02:15.889Z,17.30
2018-03-15T23:04:43.488Z,19.10
2018-03-15T23:07:11.142Z,17.13
2018-03-15T23:09:38.739Z,16.40
2018-03-15T23:12:06.332Z,16.70
2018-03-15T23:14:33.967Z,21.30
2018-03-15T23:17:02.334Z,17.80
2018-03-15T23:19:29.975Z,16.27
2018-03-15T23:21:57.612Z,19.83
2018-03-15T23:24:25.222Z,17.20
2018-03-15T23:26:53.574Z,17.50
2018-03-15T23:29:21.210Z,15.37
2018-03-15T23:31:48.796Z,16.20
2018-03-15T23:34:16.430Z,20.47
2018-03-15T23:36:44.064Z,17.50
2018-03-15T23:39:12.417Z,18.90
2018-03-15T23:41:40.060Z,21.73
2018-03-15T23:44:07.642Z,16.93
2018-03-15T23:46:35.286Z,18.30
2018-03-15T23:49:02.875Z,19.90
2018-03-15T23:51:30.503Z,22.50
2018-03-15T23:53:58.090Z,16.70
2018-03-15T23:56:25.723Z,20.53
2018-03-15T23:58:53.308Z,20.87
